Time;durP1;ratioP1;P1;durP2;ratioP2;P2;SDS_P1;SDS_P2;PMS_P1;PMS_P2;Temp;Humidity;BMP_temperature;BMP_pressure;BME280_temperature;BME280_humidity;BME280_pressure;Samples;Min_cycle;Max_cycle;Signal;HPM_P1;HPM_P2
2021/08/16 00:00:46;;;;;;;5.82;3.53;;;;;;;;;;2076401;28;20208;-58
2021/08/16 00:01:46;;;;;;;4.40;3.60;;;;;;;;;;2073119;28;20165;-56
2021/08/16 00:02:46;;;;;;;4.93;3.33;;;;;;;;;;2073270;28;20181;-59
2021/08/16 00:03:47;;;;;;;4.28;3.83;;;;;;;;;;2074711;28;20180;-60
2021/08/16 00:04:47;;;;;;;4.15;3.72;;;;;;;;;;2072480;28;20314;-59
2021/08/16 00:05:47;;;;;;;4.53;3.85;;;;;;;;;;2072430;28;20201;-60
2021/08/16 00:06:47;;;;;;;4.30;3.90;;;;;;;;;;2081322;28;20164;-59
2021/08/16 00:07:48;;;;;;;4.72;3.95;;;;;;;;;;2072365;28;20212;-59
2021/08/16 00:08:48;;;;;;;5.70;4.03;;;;;;;;;;2069992;28;20703;-58
2021/08/16 00:09:48;;;;;;;3.72;3.38;;;;;;;;;;2072989;28;20215;-59
2021/08/16 00:10:49;;;;;;;4.28;3.50;;;;;;;;;;2064422;28;20708;-59
2021/08/16 00:11:49;;;;;;;4.55;3.80;;;;;;;;;;2064591;28;20250;-59
2021/08/16 00:12:49;;;;;;;4.93;3.85;;;;;;;;;;2073072;28;20173;-58
2021/08/16 00:13:49;;;;;;;6.63;3.90;;;;;;;;;;2072985;28;20161;-59
2021/08/16 00:14:50;;;;;;;5.70;3.40;;;;;;;;;;2073270;28;20658;-58
2021/08/16 00:15:51;;;;;;;5.43;3.50;;;;;;;;;;2074854;28;20203;-58
2021/08/16 00:16:51;;;;;;;3.63;3.33;;;;;;;;;;2074930;28;20165;-58
2021/08/16 00:17:51;;;;;;;6.07;3.97;;;;;;;;;;2080011;28;20184;-57
2021/08/16 00:18:51;;;;;;;4.18;3.40;;;;;;;;;;2082119;28;20195;-58
2021/08/16 00:19:52;;;;;;;6.03;3.75;;;;;;;;;;2083042;28;20175;-59
2021/08/16 00:20:52;;;;;;;4.63;4.05;;;;;;;;;;2082952;28;20327;-58
2021/08/16 00:21:53;;;;;;;6.82;4.50;;;;;;;;;;2074451;28;20173;-58
2021/08/16 00:22:53;;;;;;;4.93;3.78;;;;;;;;;;2075573;28;20164;-58
2021/08/16 00:23:53;;;;;;;5.40;3.80;;;;;;;;;;2085577;28;20191;-58
2021/08/16 00:24:53;;;;;;;4.30;3.90;;;;;;;;;;2087876;28;20172;-56
2021/08/16 00:25:54;;;;;;;7.32;3.92;;;;;;;;;;2072203;28;20204;-59
2021/08/16 00:26:54;;;;;;;4.73;4.13;;;;;;;;;;2077774;28;20173;-59
2021/08/16 00:27:54;;;;;;;7.00;3.72;;;;;;;;;;2075503;28;20225;-52
2021/08/16 00:28:59;;;;;;;5.53;4.32;;;;;;;;;;2074663;28;20263;-57
2021/08/16 00:29:59;;;;;;;7.60;4.35;;;;;;;;;;2082636;28;20691;-59
2021/08/16 00:30:59;;;;;;;4.28;3.88;;;;;;;;;;2084924;28;20172;-57
2021/08/16 00:32:00;;;;;;;7.03;3.70;;;;;;;;;;2086879;28;20174;-56
2021/08/16 00:33:00;;;;;;;5.30;3.50;;;;;;;;;;2083475;28;20176;-58
2021/08/16 00:34:00;;;;;;;3.95;3.55;;;;;;;;;;2082972;28;20210;-59
2021/08/16 00:35:00;;;;;;;4.80;3.63;;;;;;;;;;2083148;28;20267;-57
2021/08/16 00:36:01;;;;;;;4.22;3.47;;;;;;;;;;2080416;28;20683;-57
2021/08/16 00:37:01;;;;;;;3.95;3.15;;;;;;;;;;2081608;28;20191;-58
2021/08/16 00:38:02;;;;;;;5.47;3.42;;;;;;;;;;2083136;28;20176;-58
2021/08/16 00:39:02;;;;;;;2.78;2.33;;;;;;;;;;2079349;28;20188;-58
2021/08/16 00:40:03;;;;;;;5.75;3.25;;;;;;;;;;2085138;28;20201;-57
2021/08/16 00:41:04;;;;;;;7.53;3.28;;;;;;;;;;2080230;28;20203;-54
2021/08/16 00:42:09;;;;;;;7.72;3.50;;;;;;;;;;2077552;28;20177;-57
2021/08/16 00:43:09;;;;;;;7.43;3.45;;;;;;;;;;2068977;28;20185;-57
2021/08/16 00:44:09;;;;;;;4.93;3.17;;;;;;;;;;2085091;28;20237;-58
2021/08/16 00:45:10;;;;;;;4.50;3.10;;;;;;;;;;2087422;28;20183;-58
2021/08/16 00:46:11;;;;;;;7.82;3.60;;;;;;;;;;2085470;28;20207;-55
2021/08/16 00:47:12;;;;;;;4.10;3.25;;;;;;;;;;2087908;28;20183;-54
2021/08/16 00:48:13;;;;;;;10.50;3.50;;;;;;;;;;2081320;28;20172;-53
2021/08/16 00:49:14;;;;;;;4.28;3.22;;;;;;;;;;2088367;28;20214;-56
2021/08/16 00:50:14;;;;;;;9.43;4.07;;;;;;;;;;2075452;28;20161;-55
2021/08/16 00:51:15;;;;;;;5.95;4.00;;;;;;;;;;2079873;28;20191;-57
2021/08/16 00:52:16;;;;;;;6.57;3.83;;;;;;;;;;2083554;28;20531;-57
2021/08/16 00:53:16;;;;;;;3.53;3.10;;;;;;;;;;2083452;28;20667;-54
2021/08/16 00:54:16;;;;;;;5.97;3.40;;;;;;;;;;2084888;28;20183;-57
2021/08/16 00:55:17;;;;;;;6.57;3.97;;;;;;;;;;2087104;28;20167;-57
2021/08/16 00:56:17;;;;;;;8.07;4.07;;;;;;;;;;2081391;28;20204;-56
2021/08/16 00:57:17;;;;;;;5.47;3.70;;;;;;;;;;2087367;28;20218;-57
2021/08/16 00:58:18;;;;;;;4.05;3.55;;;;;;;;;;2081097;28;20185;-57
2021/08/16 00:59:18;;;;;;;7.35;3.72;;;;;;;;;;2078673;28;20557;-57
2021/08/16 01:00:20;;;;;;;6.78;3.15;;;;;;;;;;2078611;28;20180;-52
2021/08/16 01:01:20;;;;;;;6.18;3.88;;;;;;;;;;2076783;28;20645;-54
2021/08/16 01:02:21;;;;;;;4.45;3.28;;;;;;;;;;2080860;28;20271;-56
2021/08/16 01:03:21;;;;;;;6.45;3.63;;;;;;;;;;2087513;28;20167;-58
2021/08/16 01:04:22;;;;;;;5.70;3.30;;;;;;;;;;2078239;28;20665;-57
2021/08/16 01:05:22;;;;;;;3.85;3.13;;;;;;;;;;2088561;28;20178;-56
2021/08/16 01:06:22;;;;;;;9.38;3.90;;;;;;;;;;2075922;28;20553;-55
2021/08/16 01:07:23;;;;;;;5.50;3.47;;;;;;;;;;2082862;28;20203;-57
2021/08/16 01:08:24;;;;;;;8.02;3.58;;;;;;;;;;2076659;28;20197;-58
2021/08/16 01:09:24;;;;;;;4.82;3.67;;;;;;;;;;2080684;28;20172;-59
2021/08/16 01:10:29;;;;;;;5.03;3.42;;;;;;;;;;2073823;28;20173;-58
2021/08/16 01:11:31;;;;;;;5.93;3.63;;;;;;;;;;2077168;28;20554;-57
2021/08/16 01:12:31;;;;;;;8.07;3.60;;;;;;;;;;2082624;28;20188;-55
2021/08/16 01:13:32;;;;;;;8.70;3.58;;;;;;;;;;2090655;28;20163;-59
2021/08/16 01:14:32;;;;;;;6.63;3.22;;;;;;;;;;2082445;28;20177;-57
2021/08/16 01:15:33;;;;;;;4.10;3.15;;;;;;;;;;2082723;28;20537;-59
2021/08/16 01:16:33;;;;;;;5.80;3.65;;;;;;;;;;2078770;28;20195;-56
2021/08/16 01:17:34;;;;;;;5.15;3.50;;;;;;;;;;2091107;28;20172;-56
2021/08/16 01:18:35;;;;;;;7.32;3.85;;;;;;;;;;2076323;28;20184;-59
2021/08/16 01:19:35;;;;;;;5.30;3.15;;;;;;;;;;2091029;28;20248;-58
2021/08/16 01:20:35;;;;;;;5.53;3.15;;;;;;;;;;2083248;28;20628;-57
2021/08/16 01:21:35;;;;;;;7.35;3.13;;;;;;;;;;2091841;28;20185;-56
2021/08/16 01:22:36;;;;;;;7.70;3.28;;;;;;;;;;2074230;28;20268;-56
2021/08/16 01:23:38;;;;;;;8.00;3.72;;;;;;;;;;2071596;28;20204;-58
2021/08/16 01:24:39;;;;;;;10.57;4.00;;;;;;;;;;2078407;28;20195;-58
2021/08/16 01:25:44;;;;;;;5.55;3.28;;;;;;;;;;2089972;28;20298;-58
2021/08/16 01:26:44;;;;;;;5.53;3.22;;;;;;;;;;2085034;28;20264;-58
2021/08/16 01:27:44;;;;;;;5.28;3.25;;;;;;;;;;2080577;28;20222;-58
2021/08/16 01:28:45;;;;;;;7.50;3.92;;;;;;;;;;2070141;28;20181;-55
2021/08/16 01:29:45;;;;;;;4.70;3.65;;;;;;;;;;2088285;28;20796;-59
2021/08/16 01:30:46;;;;;;;5.15;3.88;;;;;;;;;;2079679;28;20650;-56
2021/08/16 01:31:46;;;;;;;5.35;3.67;;;;;;;;;;2083772;28;20211;-55
2021/08/16 01:32:46;;;;;;;8.52;3.88;;;;;;;;;;2083673;28;20174;-55
2021/08/16 01:33:46;;;;;;;4.68;3.28;;;;;;;;;;2075944;28;20181;-54
2021/08/16 01:34:47;;;;;;;4.20;3.53;;;;;;;;;;2079523;28;20176;-58
2021/08/16 01:35:47;;;;;;;5.65;3.35;;;;;;;;;;2082061;28;20210;-54
2021/08/16 01:36:47;;;;;;;4.57;3.25;;;;;;;;;;2082347;28;20600;-54
2021/08/16 01:37:50;;;;;;;9.25;3.90;;;;;;;;;;2082364;28;20524;-58
2021/08/16 01:38:50;;;;;;;4.55;3.50;;;;;;;;;;2077291;28;20203;-59
2021/08/16 01:39:50;;;;;;;6.00;3.88;;;;;;;;;;2079399;28;20217;-55
2021/08/16 01:40:50;;;;;;;5.28;3.53;;;;;;;;;;2074187;28;20550;-59
2021/08/16 01:41:51;;;;;;;5.40;3.83;;;;;;;;;;2074005;28;20177;-58
2021/08/16 01:42:51;;;;;;;4.25;3.55;;;;;;;;;;2073699;28;20199;-55
2021/08/16 01:43:51;;;;;;;4.22;3.83;;;;;;;;;;2072764;28;20189;-57
2021/08/16 01:44:51;;;;;;;5.03;3.55;;;;;;;;;;2084869;28;20171;-59
2021/08/16 01:45:52;;;;;;;5.05;3.72;;;;;;;;;;2090216;28;20210;-59
2021/08/16 01:46:53;;;;;;;5.07;3.92;;;;;;;;;;2089901;28;20202;-56
2021/08/16 01:47:53;;;;;;;5.78;3.85;;;;;;;;;;2082367;28;20284;-58
2021/08/16 01:48:53;;;;;;;5.22;3.83;;;;;;;;;;2085150;28;20221;-59
2021/08/16 01:49:54;;;;;;;4.03;3.63;;;;;;;;;;2087075;28;20211;-57
2021/08/16 01:50:55;;;;;;;6.25;3.67;;;;;;;;;;2081692;28;20176;-57
2021/08/16 01:51:56;;;;;;;7.68;3.85;;;;;;;;;;2082041;28;20216;-57
2021/08/16 01:52:56;;;;;;;5.40;3.83;;;;;;;;;;2082171;28;20200;-58
2021/08/16 01:53:56;;;;;;;9.55;4.10;;;;;;;;;;2081035;28;20164;-57
2021/08/16 01:54:56;;;;;;;3.88;3.28;;;;;;;;;;2086672;28;20683;-57
2021/08/16 01:55:57;;;;;;;4.63;3.70;;;;;;;;;;2093398;22;20253;-55
2021/08/16 01:56:57;;;;;;;5.13;3.85;;;;;;;;;;2076845;28;20196;-55
2021/08/16 01:57:57;;;;;;;10.00;3.95;;;;;;;;;;2076574;28;20194;-53
2021/08/16 01:58:57;;;;;;;6.85;3.90;;;;;;;;;;2074019;28;20176;-54
2021/08/16 01:59:58;;;;;;;6.60;3.53;;;;;;;;;;2076386;28;20230;-52
2021/08/16 02:00:58;;;;;;;5.65;3.65;;;;;;;;;;2083624;28;20619;-53
2021/08/16 02:01:58;;;;;;;7.95;4.22;;;;;;;;;;2086405;28;20700;-54
2021/08/16 02:02:58;;;;;;;4.72;3.92;;;;;;;;;;2089951;28;20180;-49
2021/08/16 02:03:59;;;;;;;6.25;4.30;;;;;;;;;;2076817;28;20188;-50
2021/08/16 02:04:59;;;;;;;5.57;3.90;;;;;;;;;;2071327;28;20363;-48
2021/08/16 02:05:59;;;;;;;7.07;4.38;;;;;;;;;;2081299;28;20175;-51
2021/08/16 02:07:02;;;;;;;5.63;3.83;;;;;;;;;;2075519;28;20180;-49
2021/08/16 02:08:03;;;;;;;7.85;3.95;;;;;;;;;;2079588;28;20183;-49
2021/08/16 02:09:03;;;;;;;5.32;3.65;;;;;;;;;;2086257;28;20246;-51
2021/08/16 02:10:04;;;;;;;8.00;4.60;;;;;;;;;;2084756;28;20270;-51
2021/08/16 02:11:04;;;;;;;7.28;4.10;;;;;;;;;;2081806;28;20164;-51
2021/08/16 02:12:04;;;;;;;5.30;3.90;;;;;;;;;;2080192;28;20183;-50
2021/08/16 02:13:05;;;;;;;5.25;3.83;;;;;;;;;;2079441;28;20179;-48
2021/08/16 02:14:05;;;;;;;4.13;3.53;;;;;;;;;;2083635;28;20195;-50
2021/08/16 02:15:09;;;;;;;6.45;4.05;;;;;;;;;;2077971;28;20156;-52
2021/08/16 02:16:09;;;;;;;6.63;3.70;;;;;;;;;;2079164;28;20187;-49
2021/08/16 02:17:10;;;;;;;5.43;4.10;;;;;;;;;;2084594;28;20175;-52
2021/08/16 02:18:10;;;;;;;6.03;3.90;;;;;;;;;;2083004;28;20160;-50
2021/08/16 02:19:10;;;;;;;4.88;4.28;;;;;;;;;;2078820;28;20188;-51
2021/08/16 02:20:11;;;;;;;7.13;4.28;;;;;;;;;;2076148;28;20173;-51
2021/08/16 02:21:11;;;;;;;6.82;4.05;;;;;;;;;;2075668;28;20173;-50
2021/08/16 02:22:11;;;;;;;6.15;3.60;;;;;;;;;;2087536;28;20620;-50
2021/08/16 02:23:12;;;;;;;6.18;4.10;;;;;;;;;;2082585;28;20165;-49
2021/08/16 02:24:12;;;;;;;6.18;3.85;;;;;;;;;;2073813;28;20177;-49
2021/08/16 02:25:12;;;;;;;4.38;3.97;;;;;;;;;;2073568;28;20173;-50
2021/08/16 02:26:12;;;;;;;4.75;3.80;;;;;;;;;;2076513;28;20188;-50
2021/08/16 02:27:13;;;;;;;5.55;4.40;;;;;;;;;;2087441;28;20175;-51
2021/08/16 02:28:17;;;;;;;5.63;4.13;;;;;;;;;;2083099;28;20172;-50
2021/08/16 02:29:17;;;;;;;5.07;4.30;;;;;;;;;;2088203;28;20828;-50
2021/08/16 02:30:18;;;;;;;6.00;4.13;;;;;;;;;;2089727;28;20179;-52
2021/08/16 02:31:23;;;;;;;5.88;4.30;;;;;;;;;;2079820;28;20515;-47
2021/08/16 02:32:23;;;;;;;5.82;4.70;;;;;;;;;;2071997;28;20303;-51
2021/08/16 02:33:23;;;;;;;5.35;4.85;;;;;;;;;;2072885;28;20594;-49
2021/08/16 02:34:24;;;;;;;6.63;4.80;;;;;;;;;;2080312;28;20184;-52
2021/08/16 02:35:24;;;;;;;5.20;4.30;;;;;;;;;;2081608;28;20164;-49
2021/08/16 02:36:24;;;;;;;6.45;4.75;;;;;;;;;;2081629;28;20267;-52
2021/08/16 02:37:24;;;;;;;6.68;5.18;;;;;;;;;;2081604;28;20185;-50
2021/08/16 02:38:25;;;;;;;5.32;4.72;;;;;;;;;;2079997;28;20176;-49
2021/08/16 02:39:25;;;;;;;8.52;5.07;;;;;;;;;;2081088;28;20164;-50
2021/08/16 02:40:25;;;;;;;6.65;4.80;;;;;;;;;;2081593;28;20179;-49
2021/08/16 02:41:25;;;;;;;6.05;5.45;;;;;;;;;;2081247;28;20169;-51
2021/08/16 02:42:26;;;;;;;4.95;4.50;;;;;;;;;;2080745;28;20172;-50
2021/08/16 02:43:28;;;;;;;5.60;4.72;;;;;;;;;;2083163;28;20202;-53
2021/08/16 02:44:28;;;;;;;6.35;5.15;;;;;;;;;;2073156;28;20545;-53
2021/08/16 02:45:29;;;;;;;6.40;5.05;;;;;;;;;;2080383;28;20172;-49
2021/08/16 02:46:29;;;;;;;10.02;5.63;;;;;;;;;;2081030;28;20606;-52
2021/08/16 02:47:29;;;;;;;5.90;5.22;;;;;;;;;;2089674;28;20860;-49
2021/08/16 02:48:30;;;;;;;6.85;5.10;;;;;;;;;;2079883;28;20185;-49
2021/08/16 02:49:30;;;;;;;6.50;5.43;;;;;;;;;;2089247;28;20195;-50
2021/08/16 02:50:30;;;;;;;8.52;5.32;;;;;;;;;;2080324;28;20533;-49
2021/08/16 02:51:30;;;;;;;8.60;4.88;;;;;;;;;;2066108;28;20178;-53
2021/08/16 02:52:30;;;;;;;8.45;5.68;;;;;;;;;;2080432;28;20167;-53
2021/08/16 02:53:31;;;;;;;6.38;5.43;;;;;;;;;;2079836;28;20207;-52
2021/08/16 02:54:31;;;;;;;8.00;5.82;;;;;;;;;;2080849;28;20656;-50
2021/08/16 02:55:31;;;;;;;9.57;5.78;;;;;;;;;;2072976;28;20173;-49
2021/08/16 02:56:32;;;;;;;6.60;4.95;;;;;;;;;;2089600;28;20282;-49
2021/08/16 02:57:32;;;;;;;7.57;5.55;;;;;;;;;;2089977;28;20702;-49
2021/08/16 02:58:32;;;;;;;7.93;5.78;;;;;;;;;;2083836;28;20184;-50
2021/08/16 02:59:32;;;;;;;5.47;4.72;;;;;;;;;;2072693;28;20175;-49
2021/08/16 03:00:32;;;;;;;5.90;5.15;;;;;;;;;;2080602;28;20718;-48
2021/08/16 03:01:33;;;;;;;9.07;6.28;;;;;;;;;;2079814;28;20598;-48
2021/08/16 03:02:33;;;;;;;7.13;6.40;;;;;;;;;;2082440;28;20506;-51
2021/08/16 03:03:33;;;;;;;8.27;6.15;;;;;;;;;;2088651;28;20183;-51
2021/08/16 03:04:34;;;;;;;7.05;5.68;;;;;;;;;;2079710;28;20180;-50
2021/08/16 03:05:35;;;;;;;10.30;6.35;;;;;;;;;;2073628;28;20207;-50
2021/08/16 03:06:35;;;;;;;7.80;6.13;;;;;;;;;;2065436;28;20204;-51
2021/08/16 03:07:35;;;;;;;9.65;6.40;;;;;;;;;;2080246;28;20664;-52
2021/08/16 03:08:36;;;;;;;10.52;6.80;;;;;;;;;;2080682;28;20176;-48
2021/08/16 03:09:36;;;;;;;9.77;5.53;;;;;;;;;;2075322;28;20180;-52
2021/08/16 03:10:36;;;;;;;10.43;6.47;;;;;;;;;;2088298;28;20194;-49
2021/08/16 03:11:36;;;;;;;9.55;6.25;;;;;;;;;;2082248;28;20183;-51
2021/08/16 03:12:37;;;;;;;13.00;6.32;;;;;;;;;;2089879;28;20183;-48
2021/08/16 03:13:37;;;;;;;9.98;6.40;;;;;;;;;;2078412;28;20809;-48
2021/08/16 03:14:37;;;;;;;9.93;6.60;;;;;;;;;;2073557;28;20672;-51
2021/08/16 03:15:37;;;;;;;9.18;6.05;;;;;;;;;;2064735;28;20189;-48
2021/08/16 03:16:38;;;;;;;7.22;5.68;;;;;;;;;;2065171;28;20213;-49
2021/08/16 03:17:38;;;;;;;9.30;6.85;;;;;;;;;;2072616;28;20696;-53
2021/08/16 03:18:38;;;;;;;10.23;6.57;;;;;;;;;;2079445;28;20191;-51
2021/08/16 03:19:39;;;;;;;12.65;6.75;;;;;;;;;;2088757;28;20172;-48
2021/08/16 03:20:40;;;;;;;12.15;6.80;;;;;;;;;;2073923;28;20706;-51
2021/08/16 03:21:40;;;;;;;8.63;6.85;;;;;;;;;;2066431;28;20760;-52
2021/08/16 03:22:40;;;;;;;11.90;7.30;;;;;;;;;;2073563;28;20176;-53
2021/08/16 03:23:41;;;;;;;8.32;6.28;;;;;;;;;;2079042;28;20656;-49
2021/08/16 03:24:41;;;;;;;12.63;7.93;;;;;;;;;;2079412;28;20222;-49
2021/08/16 03:25:41;;;;;;;10.73;7.03;;;;;;;;;;2087204;28;20167;-50
2021/08/16 03:26:41;;;;;;;12.57;7.60;;;;;;;;;;2079265;28;20192;-51
2021/08/16 03:27:42;;;;;;;9.55;7.22;;;;;;;;;;2075951;28;20232;-48
2021/08/16 03:28:42;;;;;;;17.38;7.55;;;;;;;;;;2076936;28;20181;-48
2021/08/16 03:29:43;;;;;;;8.40;6.68;;;;;;;;;;2077013;28;20215;-52
2021/08/16 03:30:45;;;;;;;12.50;7.88;;;;;;;;;;2077534;28;20199;-54
2021/08/16 03:31:45;;;;;;;12.70;7.47;;;;;;;;;;2077609;28;20192;-50
2021/08/16 03:32:48;;;;;;;8.98;7.03;;;;;;;;;;2083258;28;20195;-50
2021/08/16 03:33:48;;;;;;;12.77;7.65;;;;;;;;;;2071054;28;20247;-53
2021/08/16 03:34:48;;;;;;;11.63;7.88;;;;;;;;;;2069043;28;20185;-49
2021/08/16 03:35:49;;;;;;;10.27;7.65;;;;;;;;;;2074306;28;20161;-48
2021/08/16 03:36:49;;;;;;;12.70;8.02;;;;;;;;;;2080423;28;20176;-49
2021/08/16 03:37:49;;;;;;;9.95;7.85;;;;;;;;;;2080210;28;20171;-52
2021/08/16 03:38:50;;;;;;;10.63;7.53;;;;;;;;;;2080979;28;20579;-52
2021/08/16 03:39:50;;;;;;;13.77;8.30;;;;;;;;;;2085721;28;20225;-52
2021/08/16 03:40:50;;;;;;;11.77;7.57;;;;;;;;;;2088441;28;20180;-50
2021/08/16 03:41:51;;;;;;;15.48;7.57;;;;;;;;;;2083793;28;20714;-49
2021/08/16 03:42:51;;;;;;;9.77;7.65;;;;;;;;;;2083163;28;20203;-51
2021/08/16 03:43:51;;;;;;;10.95;7.93;;;;;;;;;;2080063;28;20168;-51
2021/08/16 03:44:52;;;;;;;11.07;7.78;;;;;;;;;;2075465;28;20203;-52
2021/08/16 03:45:53;;;;;;;13.18;7.97;;;;;;;;;;2075701;28;20181;-49
2021/08/16 03:46:53;;;;;;;11.63;8.05;;;;;;;;;;2067969;28;20193;-52
2021/08/16 03:47:53;;;;;;;13.00;8.95;;;;;;;;;;2076961;28;20192;-54
2021/08/16 03:48:54;;;;;;;11.52;8.63;;;;;;;;;;2087180;28;20262;-49
2021/08/16 03:49:54;;;;;;;13.10;8.55;;;;;;;;;;2088258;28;20271;-53
2021/08/16 03:50:54;;;;;;;13.38;8.75;;;;;;;;;;2085071;28;20172;-49
2021/08/16 03:51:55;;;;;;;15.57;8.35;;;;;;;;;;2074312;28;20180;-49
2021/08/16 03:52:55;;;;;;;10.23;8.65;;;;;;;;;;2076971;28;20256;-51
2021/08/16 03:53:55;;;;;;;12.52;9.60;;;;;;;;;;2079727;28;20163;-49
2021/08/16 03:54:55;;;;;;;13.20;8.88;;;;;;;;;;2089231;28;20180;-52
2021/08/16 03:55:56;;;;;;;16.33;10.13;;;;;;;;;;2089206;28;20246;-51
2021/08/16 03:56:56;;;;;;;14.65;9.05;;;;;;;;;;2089407;28;20175;-50
2021/08/16 03:57:56;;;;;;;14.80;9.30;;;;;;;;;;2085737;28;20163;-49
2021/08/16 03:58:56;;;;;;;12.63;9.55;;;;;;;;;;2079342;28;20176;-51
2021/08/16 03:59:57;;;;;;;14.48;9.77;;;;;;;;;;2080900;28;20640;-53
2021/08/16 04:00:57;;;;;;;15.63;10.30;;;;;;;;;;2084620;28;20241;-54
2021/08/16 04:01:57;;;;;;;19.65;9.85;;;;;;;;;;2081762;28;20275;-55
2021/08/16 04:02:58;;;;;;;13.93;9.88;;;;;;;;;;2080849;28;20178;-51
2021/08/16 04:04:01;;;;;;;13.88;10.52;;;;;;;;;;2084939;28;20251;-51
2021/08/16 04:05:01;;;;;;;13.32;9.55;;;;;;;;;;2083639;28;20187;-50
2021/08/16 04:06:01;;;;;;;18.85;9.73;;;;;;;;;;2075628;28;20177;-49
2021/08/16 04:07:02;;;;;;;13.93;9.60;;;;;;;;;;2073862;28;20176;-54
2021/08/16 04:08:02;;;;;;;16.92;9.73;;;;;;;;;;2080145;28;20767;-51
2021/08/16 04:09:02;;;;;;;20.55;10.10;;;;;;;;;;2083943;28;20175;-54
2021/08/16 04:10:03;;;;;;;11.95;9.18;;;;;;;;;;2084233;28;20183;-50
2021/08/16 04:11:03;;;;;;;13.85;9.05;;;;;;;;;;2084340;28;20172;-52
2021/08/16 04:12:04;;;;;;;23.83;10.07;;;;;;;;;;2082399;28;20176;-54
2021/08/16 04:13:04;;;;;;;17.48;9.50;;;;;;;;;;2081921;28;20181;-49
2021/08/16 04:14:04;;;;;;;11.55;9.57;;;;;;;;;;2083803;28;20207;-51
2021/08/16 04:15:09;;;;;;;16.13;9.30;;;;;;;;;;2084304;28;20173;-50
2021/08/16 04:16:09;;;;;;;16.67;9.93;;;;;;;;;;2083223;28;20191;-51
2021/08/16 04:17:10;;;;;;;18.48;9.55;;;;;;;;;;2082782;28;20167;-52
2021/08/16 04:18:10;;;;;;;15.18;9.10;;;;;;;;;;2080339;28;20211;-54
2021/08/16 04:19:10;;;;;;;16.30;9.77;;;;;;;;;;2079513;28;20191;-54
2021/08/16 04:20:11;;;;;;;17.02;9.30;;;;;;;;;;2069646;28;20550;-50
2021/08/16 04:21:12;;;;;;;15.80;9.60;;;;;;;;;;2063688;28;20208;-52
2021/08/16 04:22:12;;;;;;;13.13;9.57;;;;;;;;;;2078185;28;20160;-52
2021/08/16 04:23:12;;;;;;;18.25;10.07;;;;;;;;;;2081107;28;20168;-49
2021/08/16 04:24:12;;;;;;;14.10;9.15;;;;;;;;;;2083801;28;20658;-52
2021/08/16 04:25:15;;;;;;;20.17;9.13;;;;;;;;;;2080438;28;20174;-53
2021/08/16 04:26:15;;;;;;;18.17;10.07;;;;;;;;;;2079581;28;20266;-50
2021/08/16 04:27:15;;;;;;;15.80;9.50;;;;;;;;;;2086571;28;20176;-49
2021/08/16 04:28:15;;;;;;;14.57;9.18;;;;;;;;;;2062002;28;20174;-50
2021/08/16 04:29:16;;;;;;;23.85;9.48;;;;;;;;;;2067872;28;20200;-50
2021/08/16 04:30:16;;;;;;;17.00;9.27;;;;;;;;;;2081261;28;20172;-52
2021/08/16 04:31:16;;;;;;;14.82;10.13;;;;;;;;;;2082142;28;20180;-50
2021/08/16 04:32:17;;;;;;;20.05;9.40;;;;;;;;;;2077608;28;20654;-50
2021/08/16 04:33:18;;;;;;;16.50;10.02;;;;;;;;;;2085184;28;20172;-51
2021/08/16 04:34:18;;;;;;;19.35;9.48;;;;;;;;;;2081772;28;20702;-51
2021/08/16 04:35:19;;;;;;;14.77;8.68;;;;;;;;;;2086995;28;20172;-49
2021/08/16 04:36:21;;;;;;;16.92;9.00;;;;;;;;;;2067208;28;20201;-51
2021/08/16 04:37:21;;;;;;;15.00;9.15;;;;;;;;;;2070742;28;20588;-50
2021/08/16 04:38:22;;;;;;;14.80;9.40;;;;;;;;;;2081013;28;20169;-50
2021/08/16 04:39:23;;;;;;;13.52;9.10;;;;;;;;;;2079465;28;20173;-50
2021/08/16 04:40:23;;;;;;;16.35;8.88;;;;;;;;;;2086997;28;20191;-57
2021/08/16 04:41:23;;;;;;;16.80;8.55;;;;;;;;;;2072543;28;20172;-54
2021/08/16 04:42:24;;;;;;;15.40;9.23;;;;;;;;;;2079474;28;20686;-50
2021/08/16 04:43:24;;;;;;;15.82;8.93;;;;;;;;;;2079312;28;20633;-50
2021/08/16 04:44:24;;;;;;;19.52;9.27;;;;;;;;;;2088745;28;20170;-52
2021/08/16 04:45:24;;;;;;;18.52;10.10;;;;;;;;;;2075730;28;20769;-51
2021/08/16 04:46:25;;;;;;;14.13;8.73;;;;;;;;;;2082473;28;20630;-50
2021/08/16 04:47:25;;;;;;;16.00;8.77;;;;;;;;;;2078443;28;20216;-52
2021/08/16 04:48:25;;;;;;;14.00;9.00;;;;;;;;;;2072043;28;20665;-50
2021/08/16 04:49:26;;;;;;;15.48;9.07;;;;;;;;;;2070880;28;20588;-57
2021/08/16 04:50:26;;;;;;;19.05;9.18;;;;;;;;;;2072400;28;20212;-52
2021/08/16 04:51:26;;;;;;;15.45;9.02;;;;;;;;;;2063231;28;20200;-57
2021/08/16 04:52:27;;;;;;;16.75;9.48;;;;;;;;;;2069768;28;20765;-56
2021/08/16 04:53:27;;;;;;;17.73;9.60;;;;;;;;;;2088506;28;20187;-56
2021/08/16 04:54:27;;;;;;;20.05;9.38;;;;;;;;;;2072289;28;20165;-51
2021/08/16 04:55:28;;;;;;;17.88;9.68;;;;;;;;;;2079817;28;20714;-56
2021/08/16 04:56:28;;;;;;;15.73;8.88;;;;;;;;;;2079758;28;20294;-59
2021/08/16 04:57:32;;;;;;;22.65;9.30;;;;;;;;;;2088958;28;20575;-59
2021/08/16 04:58:33;;;;;;;11.98;9.13;;;;;;;;;;2073810;28;20191;-57
2021/08/16 04:59:33;;;;;;;16.95;9.10;;;;;;;;;;2071045;28;20621;-55
2021/08/16 05:00:33;;;;;;;17.33;8.93;;;;;;;;;;2074831;28;20556;-54
2021/08/16 05:01:34;;;;;;;15.90;8.75;;;;;;;;;;2085213;28;20172;-57
2021/08/16 05:02:35;;;;;;;12.93;8.40;;;;;;;;;;2073026;28;20619;-58
2021/08/16 05:03:35;;;;;;;14.82;9.02;;;;;;;;;;2076675;28;20191;-61
2021/08/16 05:04:35;;;;;;;18.60;8.77;;;;;;;;;;2090447;28;20534;-54
2021/08/16 05:05:35;;;;;;;13.20;8.73;;;;;;;;;;2090076;28;20709;-55
2021/08/16 05:06:36;;;;;;;17.90;7.70;;;;;;;;;;2086167;28;20864;-54
2021/08/16 05:07:36;;;;;;;15.85;9.05;;;;;;;;;;2084050;28;20937;-51
2021/08/16 05:08:36;;;;;;;15.80;8.45;;;;;;;;;;2078497;28;20180;-55
2021/08/16 05:09:37;;;;;;;16.17;8.75;;;;;;;;;;2082324;28;20164;-58
2021/08/16 05:10:39;;;;;;;18.92;9.00;;;;;;;;;;2082592;28;20172;-53
2021/08/16 05:11:40;;;;;;;13.70;8.82;;;;;;;;;;2084221;28;20176;-55
2021/08/16 05:12:40;;;;;;;12.60;8.38;;;;;;;;;;2082656;28;20168;-53
2021/08/16 05:13:40;;;;;;;13.35;8.15;;;;;;;;;;2086230;28;20234;-57
2021/08/16 05:14:40;;;;;;;15.27;9.38;;;;;;;;;;2083926;28;20629;-56
2021/08/16 05:15:44;;;;;;;12.02;7.97;;;;;;;;;;2084998;28;20647;-55
2021/08/16 05:16:45;;;;;;;15.13;8.43;;;;;;;;;;2074906;28;20284;-58
2021/08/16 05:17:45;;;;;;;14.95;8.45;;;;;;;;;;2080373;28;20195;-57
2021/08/16 05:18:45;;;;;;;15.65;8.20;;;;;;;;;;2085279;28;20227;-56
2021/08/16 05:19:46;;;;;;;10.57;7.95;;;;;;;;;;2081613;28;20181;-53
2021/08/16 05:20:46;;;;;;;15.60;8.38;;;;;;;;;;2080180;28;20176;-55
2021/08/16 05:21:46;;;;;;;16.33;8.55;;;;;;;;;;2086202;28;20192;-58
2021/08/16 05:22:47;;;;;;;13.77;7.93;;;;;;;;;;2084950;28;20613;-59
2021/08/16 05:23:47;;;;;;;17.63;7.93;;;;;;;;;;2090678;28;20171;-60
2021/08/16 05:24:48;;;;;;;15.95;7.80;;;;;;;;;;2084330;28;22188;-52
2021/08/16 05:25:48;;;;;;;17.67;8.50;;;;;;;;;;2072064;28;20764;-53
2021/08/16 05:26:48;;;;;;;15.63;9.23;;;;;;;;;;2070387;28;20244;-58
2021/08/16 05:27:48;;;;;;;15.10;8.32;;;;;;;;;;2065390;28;20213;-56
2021/08/16 05:28:49;;;;;;;14.65;7.75;;;;;;;;;;2055636;28;20654;-57
2021/08/16 05:29:49;;;;;;;14.52;8.35;;;;;;;;;;2066831;28;20177;-57
2021/08/16 05:30:49;;;;;;;12.57;8.68;;;;;;;;;;2080940;28;20176;-57
2021/08/16 05:31:50;;;;;;;15.38;8.18;;;;;;;;;;2082005;28;20564;-57
2021/08/16 05:32:50;;;;;;;15.10;7.95;;;;;;;;;;2079599;28;20619;-56
2021/08/16 05:33:50;;;;;;;11.95;7.75;;;;;;;;;;2087944;28;20187;-55
2021/08/16 05:34:51;;;;;;;14.98;8.55;;;;;;;;;;2080670;28;20847;-54
2021/08/16 05:35:51;;;;;;;17.60;8.18;;;;;;;;;;2086816;28;20172;-61
2021/08/16 05:36:51;;;;;;;13.63;8.10;;;;;;;;;;2080079;28;20184;-58
2021/08/16 05:37:52;;;;;;;14.27;8.77;;;;;;;;;;2081303;28;20179;-57
2021/08/16 05:38:52;;;;;;;11.93;8.20;;;;;;;;;;2089559;28;20179;-60
2021/08/16 05:39:52;;;;;;;15.57;8.18;;;;;;;;;;2084464;28;20249;-57
2021/08/16 05:40:53;;;;;;;18.35;8.38;;;;;;;;;;2082315;28;20175;-59
2021/08/16 05:41:53;;;;;;;11.95;8.73;;;;;;;;;;2076247;28;20202;-58
2021/08/16 05:42:54;;;;;;;16.13;8.18;;;;;;;;;;2083394;28;20172;-59
2021/08/16 05:43:54;;;;;;;12.65;8.20;;;;;;;;;;2076717;28;20172;-57
2021/08/16 05:44:54;;;;;;;12.60;8.13;;;;;;;;;;2078127;28;20701;-55
2021/08/16 05:45:55;;;;;;;14.40;9.32;;;;;;;;;;2082028;28;20214;-53
2021/08/16 05:46:55;;;;;;;17.52;8.30;;;;;;;;;;2074583;28;20169;-53
2021/08/16 05:47:56;;;;;;;15.20;8.80;;;;;;;;;;2079940;28;20683;-57
2021/08/16 05:48:56;;;;;;;14.85;8.27;;;;;;;;;;2079824;28;20179;-54
2021/08/16 05:49:57;;;;;;;14.65;8.48;;;;;;;;;;2079982;28;20160;-59
2021/08/16 05:50:57;;;;;;;19.92;8.80;;;;;;;;;;2081412;28;20184;-57
2021/08/16 05:51:57;;;;;;;11.88;8.50;;;;;;;;;;2085795;28;20187;-57
2021/08/16 05:52:57;;;;;;;16.80;8.38;;;;;;;;;;2085833;28;20165;-53
2021/08/16 05:53:58;;;;;;;18.05;9.75;;;;;;;;;;2085073;28;20203;-55
2021/08/16 05:54:58;;;;;;;13.55;9.07;;;;;;;;;;2075739;28;20250;-58
2021/08/16 05:55:58;;;;;;;17.67;8.55;;;;;;;;;;2074455;28;20172;-55
2021/08/16 05:56:58;;;;;;;14.68;9.45;;;;;;;;;;2072911;28;20185;-53
2021/08/16 05:57:58;;;;;;;15.00;9.07;;;;;;;;;;2084042;28;20191;-53
2021/08/16 05:58:59;;;;;;;11.20;8.32;;;;;;;;;;2085109;28;20211;-55
2021/08/16 05:59:59;;;;;;;13.75;8.85;;;;;;;;;;2077690;28;20184;-58